sensor_id;sensor_type;location;lat;lon;timestamp;P1;durP1;ratioP1;P2;durP2;ratioP2
56161;SDS011;42045;52.986;6.014;2023-04-06T00:01:27;9.10;;;7.97;;
56161;SDS011;42045;52.986;6.014;2023-04-06T00:03:52;9.52;;;7.10;;
56161;SDS011;42045;52.986;6.014;2023-04-06T00:06:18;8.68;;;7.35;;
56161;SDS011;42045;52.986;6.014;2023-04-06T00:08:44;9.68;;;7.28;;
56161;SDS011;42045;52.986;6.014;2023-04-06T00:11:09;10.90;;;7.35;;
56161;SDS011;42045;52.986;6.014;2023-04-06T00:13:35;11.38;;;7.35;;
56161;SDS011;42045;52.986;6.014;2023-04-06T00:16:02;9.93;;;7.97;;
56161;SDS011;42045;52.986;6.014;2023-04-06T00:18:30;7.80;;;6.78;;
56161;SDS011;42045;52.986;6.014;2023-04-06T00:20:56;8.95;;;7.32;;
56161;SDS011;42045;52.986;6.014;2023-04-06T00:23:22;11.52;;;8.00;;
56161;SDS011;42045;52.986;6.014;2023-04-06T00:25:47;9.63;;;7.75;;
56161;SDS011;42045;52.986;6.014;2023-04-06T00:28:13;11.85;;;8.07;;
56161;SDS011;42045;52.986;6.014;2023-04-06T00:30:40;9.63;;;7.25;;
56161;SDS011;42045;52.986;6.014;2023-04-06T00:33:06;8.80;;;7.22;;
56161;SDS011;42045;52.986;6.014;2023-04-06T00:35:32;9.65;;;7.68;;
56161;SDS011;42045;52.986;6.014;2023-04-06T00:37:57;8.38;;;7.38;;
56161;SDS011;42045;52.986;6.014;2023-04-06T00:40:23;10.65;;;7.55;;
56161;SDS011;42045;52.986;6.014;2023-04-06T00:42:49;9.00;;;7.15;;
56161;SDS011;42045;52.986;6.014;2023-04-06T00:45:15;8.25;;;7.32;;
56161;SDS011;42045;52.986;6.014;2023-04-06T00:47:41;9.15;;;7.82;;
56161;SDS011;42045;52.986;6.014;2023-04-06T00:50:07;12.40;;;7.25;;
56161;SDS011;42045;52.986;6.014;2023-04-06T00:52:33;12.30;;;8.25;;
56161;SDS011;42045;52.986;6.014;2023-04-06T00:55:00;10.85;;;7.28;;
56161;SDS011;42045;52.986;6.014;2023-04-06T00:57:25;12.55;;;7.68;;
56161;SDS011;42045;52.986;6.014;2023-04-06T00:59:51;9.88;;;7.28;;
56161;SDS011;42045;52.986;6.014;2023-04-06T01:02:18;9.38;;;7.55;;
56161;SDS011;42045;52.986;6.014;2023-04-06T01:04:43;8.88;;;7.72;;
56161;SDS011;42045;52.986;6.014;2023-04-06T01:07:09;11.77;;;7.93;;
56161;SDS011;42045;52.986;6.014;2023-04-06T01:09:35;10.27;;;8.18;;
56161;SDS011;42045;52.986;6.014;2023-04-06T01:12:01;10.13;;;7.78;;
56161;SDS011;42045;52.986;6.014;2023-04-06T01:14:27;10.55;;;6.75;;
56161;SDS011;42045;52.986;6.014;2023-04-06T01:16:54;10.32;;;8.05;;
56161;SDS011;42045;52.986;6.014;2023-04-06T01:19:22;9.85;;;7.28;;
56161;SDS011;42045;52.986;6.014;2023-04-06T01:21:48;8.93;;;8.00;;
56161;SDS011;42045;52.986;6.014;2023-04-06T01:24:15;11.35;;;8.65;;
56161;SDS011;42045;52.986;6.014;2023-04-06T01:26:41;12.40;;;7.93;;
56161;SDS011;42045;52.986;6.014;2023-04-06T01:29:08;10.95;;;7.80;;
56161;SDS011;42045;52.986;6.014;2023-04-06T01:31:33;13.20;;;8.07;;
56161;SDS011;42045;52.986;6.014;2023-04-06T01:33:59;12.93;;;8.30;;
56161;SDS011;42045;52.986;6.014;2023-04-06T01:36:25;8.80;;;7.90;;
56161;SDS011;42045;52.986;6.014;2023-04-06T01:38:51;10.85;;;8.88;;
56161;SDS011;42045;52.986;6.014;2023-04-06T01:41:17;10.13;;;8.52;;
56161;SDS011;42045;52.986;6.014;2023-04-06T01:43:44;9.65;;;8.20;;
56161;SDS011;42045;52.986;6.014;2023-04-06T01:46:10;10.15;;;8.10;;
56161;SDS011;42045;52.986;6.014;2023-04-06T01:48:35;11.25;;;7.60;;
56161;SDS011;42045;52.986;6.014;2023-04-06T01:51:01;10.95;;;8.35;;
56161;SDS011;42045;52.986;6.014;2023-04-06T01:53:27;11.20;;;8.52;;
56161;SDS011;42045;52.986;6.014;2023-04-06T01:55:52;7.88;;;7.07;;
56161;SDS011;42045;52.986;6.014;2023-04-06T01:58:18;11.93;;;7.38;;
56161;SDS011;42045;52.986;6.014;2023-04-06T02:00:44;9.65;;;7.85;;
56161;SDS011;42045;52.986;6.014;2023-04-06T02:03:09;9.13;;;7.65;;
56161;SDS011;42045;52.986;6.014;2023-04-06T02:05:35;9.85;;;8.35;;
56161;SDS011;42045;52.986;6.014;2023-04-06T02:08:05;11.68;;;7.90;;
56161;SDS011;42045;52.986;6.014;2023-04-06T02:10:32;10.48;;;7.78;;
56161;SDS011;42045;52.986;6.014;2023-04-06T02:12:59;9.73;;;7.50;;
56161;SDS011;42045;52.986;6.014;2023-04-06T02:15:25;9.38;;;6.93;;
56161;SDS011;42045;52.986;6.014;2023-04-06T02:17:51;11.45;;;7.30;;
56161;SDS011;42045;52.986;6.014;2023-04-06T02:20:17;10.90;;;7.82;;
56161;SDS011;42045;52.986;6.014;2023-04-06T02:22:43;10.80;;;8.02;;
56161;SDS011;42045;52.986;6.014;2023-04-06T02:25:09;10.48;;;8.25;;
56161;SDS011;42045;52.986;6.014;2023-04-06T02:27:35;9.07;;;8.18;;
56161;SDS011;42045;52.986;6.014;2023-04-06T02:30:01;11.68;;;8.70;;
56161;SDS011;42045;52.986;6.014;2023-04-06T02:32:28;9.55;;;7.95;;
56161;SDS011;42045;52.986;6.014;2023-04-06T02:34:53;11.13;;;7.88;;
56161;SDS011;42045;52.986;6.014;2023-04-06T02:37:19;9.25;;;7.85;;
56161;SDS011;42045;52.986;6.014;2023-04-06T02:39:45;10.98;;;8.40;;
56161;SDS011;42045;52.986;6.014;2023-04-06T02:42:11;11.13;;;8.50;;
56161;SDS011;42045;52.986;6.014;2023-04-06T02:44:37;10.25;;;8.55;;
56161;SDS011;42045;52.986;6.014;2023-04-06T02:47:02;10.02;;;8.38;;
56161;SDS011;42045;52.986;6.014;2023-04-06T02:49:28;10.63;;;8.10;;
56161;SDS011;42045;52.986;6.014;2023-04-06T02:51:54;11.43;;;8.48;;
56161;SDS011;42045;52.986;6.014;2023-04-06T02:54:19;11.23;;;8.80;;
56161;SDS011;42045;52.986;6.014;2023-04-06T02:56:45;10.07;;;8.30;;
56161;SDS011;42045;52.986;6.014;2023-04-06T02:59:11;13.35;;;8.55;;
56161;SDS011;42045;52.986;6.014;2023-04-06T03:01:36;12.27;;;8.43;;
56161;SDS011;42045;52.986;6.014;2023-04-06T03:04:02;11.05;;;9.45;;
56161;SDS011;42045;52.986;6.014;2023-04-06T03:06:28;12.13;;;8.63;;
56161;SDS011;42045;52.986;6.014;2023-04-06T03:08:55;9.02;;;8.05;;
56161;SDS011;42045;52.986;6.014;2023-04-06T03:11:20;10.95;;;8.98;;
56161;SDS011;42045;52.986;6.014;2023-04-06T03:13:46;11.40;;;8.55;;
56161;SDS011;42045;52.986;6.014;2023-04-06T03:16:12;10.73;;;9.00;;
56161;SDS011;42045;52.986;6.014;2023-04-06T03:18:37;12.32;;;8.98;;
56161;SDS011;42045;52.986;6.014;2023-04-06T03:21:03;12.60;;;8.30;;
56161;SDS011;42045;52.986;6.014;2023-04-06T03:23:29;11.60;;;10.05;;
56161;SDS011;42045;52.986;6.014;2023-04-06T03:25:55;12.93;;;9.43;;
56161;SDS011;42045;52.986;6.014;2023-04-06T03:28:20;12.40;;;9.18;;
56161;SDS011;42045;52.986;6.014;2023-04-06T03:30:46;10.75;;;8.80;;
56161;SDS011;42045;52.986;6.014;2023-04-06T03:33:12;12.60;;;8.52;;
56161;SDS011;42045;52.986;6.014;2023-04-06T03:35:37;10.07;;;8.60;;
56161;SDS011;42045;52.986;6.014;2023-04-06T03:38:03;9.98;;;8.40;;
56161;SDS011;42045;52.986;6.014;2023-04-06T03:40:32;11.55;;;8.73;;
56161;SDS011;42045;52.986;6.014;2023-04-06T03:42:58;10.10;;;8.38;;
56161;SDS011;42045;52.986;6.014;2023-04-06T03:45:24;14.02;;;9.30;;
56161;SDS011;42045;52.986;6.014;2023-04-06T03:47:50;10.73;;;8.40;;
56161;SDS011;42045;52.986;6.014;2023-04-06T03:50:15;10.55;;;8.73;;
56161;SDS011;42045;52.986;6.014;2023-04-06T03:52:41;11.80;;;9.32;;
56161;SDS011;42045;52.986;6.014;2023-04-06T03:55:07;11.27;;;8.60;;
56161;SDS011;42045;52.986;6.014;2023-04-06T03:57:33;10.63;;;8.75;;
56161;SDS011;42045;52.986;6.014;2023-04-06T03:59:58;13.18;;;9.45;;
56161;SDS011;42045;52.986;6.014;2023-04-06T04:02:24;12.13;;;8.77;;
56161;SDS011;42045;52.986;6.014;2023-04-06T04:04:50;12.70;;;9.35;;
56161;SDS011;42045;52.986;6.014;2023-04-06T04:07:16;12.25;;;9.43;;
56161;SDS011;42045;52.986;6.014;2023-04-06T04:09:41;12.15;;;10.02;;
56161;SDS011;42045;52.986;6.014;2023-04-06T04:12:07;14.63;;;8.48;;
56161;SDS011;42045;52.986;6.014;2023-04-06T04:14:33;13.05;;;10.05;;
56161;SDS011;42045;52.986;6.014;2023-04-06T04:16:58;12.95;;;9.82;;
56161;SDS011;42045;52.986;6.014;2023-04-06T04:19:24;13.80;;;10.30;;
56161;SDS011;42045;52.986;6.014;2023-04-06T04:21:50;14.35;;;9.20;;
56161;SDS011;42045;52.986;6.014;2023-04-06T04:24:15;14.25;;;9.93;;
56161;SDS011;42045;52.986;6.014;2023-04-06T04:26:41;12.25;;;10.23;;
56161;SDS011;42045;52.986;6.014;2023-04-06T04:29:07;12.02;;;9.23;;
56161;SDS011;42045;52.986;6.014;2023-04-06T04:31:33;13.98;;;9.80;;
56161;SDS011;42045;52.986;6.014;2023-04-06T04:33:59;11.45;;;10.30;;
56161;SDS011;42045;52.986;6.014;2023-04-06T04:36:25;12.70;;;9.27;;
56161;SDS011;42045;52.986;6.014;2023-04-06T04:38:54;12.13;;;9.05;;
56161;SDS011;42045;52.986;6.014;2023-04-06T04:41:20;11.50;;;9.85;;
56161;SDS011;42045;52.986;6.014;2023-04-06T04:43:45;12.25;;;9.43;;
56161;SDS011;42045;52.986;6.014;2023-04-06T04:46:11;11.13;;;9.60;;
56161;SDS011;42045;52.986;6.014;2023-04-06T04:48:37;12.82;;;9.70;;
56161;SDS011;42045;52.986;6.014;2023-04-06T04:51:03;12.18;;;9.68;;
56161;SDS011;42045;52.986;6.014;2023-04-06T04:53:29;16.13;;;10.63;;
56161;SDS011;42045;52.986;6.014;2023-04-06T04:55:55;12.38;;;10.13;;
56161;SDS011;42045;52.986;6.014;2023-04-06T04:58:21;12.82;;;10.85;;
56161;SDS011;42045;52.986;6.014;2023-04-06T05:00:46;11.80;;;9.98;;
56161;SDS011;42045;52.986;6.014;2023-04-06T05:03:21;11.13;;;9.73;;
56161;SDS011;42045;52.986;6.014;2023-04-06T05:05:48;15.00;;;9.93;;
56161;SDS011;42045;52.986;6.014;2023-04-06T05:08:13;11.60;;;10.38;;
56161;SDS011;42045;52.986;6.014;2023-04-06T05:10:40;12.75;;;9.75;;
56161;SDS011;42045;52.986;6.014;2023-04-06T05:13:06;12.07;;;9.70;;
56161;SDS011;42045;52.986;6.014;2023-04-06T05:15:32;14.30;;;10.82;;
56161;SDS011;42045;52.986;6.014;2023-04-06T05:18:00;15.30;;;11.07;;
56161;SDS011;42045;52.986;6.014;2023-04-06T05:20:26;14.23;;;10.70;;
56161;SDS011;42045;52.986;6.014;2023-04-06T05:22:52;16.65;;;11.98;;
56161;SDS011;42045;52.986;6.014;2023-04-06T05:25:18;14.90;;;12.10;;
56161;SDS011;42045;52.986;6.014;2023-04-06T05:27:44;13.82;;;11.38;;
56161;SDS011;42045;52.986;6.014;2023-04-06T05:30:10;13.38;;;11.10;;
56161;SDS011;42045;52.986;6.014;2023-04-06T05:32:36;14.02;;;11.15;;
56161;SDS011;42045;52.986;6.014;2023-04-06T05:35:02;12.25;;;10.38;;
56161;SDS011;42045;52.986;6.014;2023-04-06T05:37:27;15.45;;;10.60;;
56161;SDS011;42045;52.986;6.014;2023-04-06T05:39:53;13.60;;;10.68;;
56161;SDS011;42045;52.986;6.014;2023-04-06T05:42:18;12.52;;;10.43;;
56161;SDS011;42045;52.986;6.014;2023-04-06T05:44:44;12.32;;;10.55;;
56161;SDS011;42045;52.986;6.014;2023-04-06T05:47:10;11.82;;;10.35;;
56161;SDS011;42045;52.986;6.014;2023-04-06T05:49:36;11.77;;;10.57;;
56161;SDS011;42045;52.986;6.014;2023-04-06T05:52:02;11.50;;;9.98;;
56161;SDS011;42045;52.986;6.014;2023-04-06T05:54:27;14.05;;;11.18;;
56161;SDS011;42045;52.986;6.014;2023-04-06T05:56:53;11.23;;;10.00;;
56161;SDS011;42045;52.986;6.014;2023-04-06T05:59:18;14.27;;;10.60;;
56161;SDS011;42045;52.986;6.014;2023-04-06T06:01:45;12.32;;;10.10;;
56161;SDS011;42045;52.986;6.014;2023-04-06T06:04:11;10.88;;;9.70;;
56161;SDS011;42045;52.986;6.014;2023-04-06T06:06:37;13.02;;;10.73;;
56161;SDS011;42045;52.986;6.014;2023-04-06T06:09:02;12.60;;;9.82;;
56161;SDS011;42045;52.986;6.014;2023-04-06T06:11:28;15.77;;;10.20;;
56161;SDS011;42045;52.986;6.014;2023-04-06T06:13:55;14.98;;;10.70;;
56161;SDS011;42045;52.986;6.014;2023-04-06T06:16:21;12.10;;;10.90;;
56161;SDS011;42045;52.986;6.014;2023-04-06T06:18:47;11.85;;;10.20;;
56161;SDS011;42045;52.986;6.014;2023-04-06T06:21:13;11.63;;;10.43;;
56161;SDS011;42045;52.986;6.014;2023-04-06T06:23:39;13.73;;;10.80;;
56161;SDS011;42045;52.986;6.014;2023-04-06T06:26:04;12.18;;;10.77;;
56161;SDS011;42045;52.986;6.014;2023-04-06T06:28:30;10.50;;;9.45;;
56161;SDS011;42045;52.986;6.014;2023-04-06T06:30:56;13.38;;;10.73;;
56161;SDS011;42045;52.986;6.014;2023-04-06T06:33:23;11.77;;;10.60;;
56161;SDS011;42045;52.986;6.014;2023-04-06T06:35:49;12.85;;;10.07;;
56161;SDS011;42045;52.986;6.014;2023-04-06T06:38:16;12.25;;;11.05;;
56161;SDS011;42045;52.986;6.014;2023-04-06T06:40:42;12.80;;;11.15;;
56161;SDS011;42045;52.986;6.014;2023-04-06T06:43:08;13.02;;;10.48;;
56161;SDS011;42045;52.986;6.014;2023-04-06T06:45:33;13.30;;;11.18;;
56161;SDS011;42045;52.986;6.014;2023-04-06T06:47:59;13.32;;;10.38;;
56161;SDS011;42045;52.986;6.014;2023-04-06T06:50:25;12.68;;;10.50;;
56161;SDS011;42045;52.986;6.014;2023-04-06T06:52:51;13.25;;;11.25;;
56161;SDS011;42045;52.986;6.014;2023-04-06T06:55:16;14.50;;;11.05;;
56161;SDS011;42045;52.986;6.014;2023-04-06T06:57:44;11.52;;;10.30;;
56161;SDS011;42045;52.986;6.014;2023-04-06T07:00:11;12.18;;;10.18;;
56161;SDS011;42045;52.986;6.014;2023-04-06T07:02:38;12.20;;;10.77;;
56161;SDS011;42045;52.986;6.014;2023-04-06T07:05:04;12.68;;;10.85;;
56161;SDS011;42045;52.986;6.014;2023-04-06T07:07:33;12.07;;;10.18;;
56161;SDS011;42045;52.986;6.014;2023-04-06T07:09:59;15.20;;;11.23;;
56161;SDS011;42045;52.986;6.014;2023-04-06T07:12:26;13.00;;;10.98;;
56161;SDS011;42045;52.986;6.014;2023-04-06T07:14:51;15.70;;;11.13;;
56161;SDS011;42045;52.986;6.014;2023-04-06T07:17:17;13.50;;;11.98;;
56161;SDS011;42045;52.986;6.014;2023-04-06T07:19:43;12.60;;;11.35;;
56161;SDS011;42045;52.986;6.014;2023-04-06T07:22:10;12.65;;;11.35;;
56161;SDS011;42045;52.986;6.014;2023-04-06T07:24:36;12.85;;;11.38;;
56161;SDS011;42045;52.986;6.014;2023-04-06T07:27:02;12.50;;;11.20;;
56161;SDS011;42045;52.986;6.014;2023-04-06T07:29:28;14.98;;;11.70;;
56161;SDS011;42045;52.986;6.014;2023-04-06T07:31:54;13.18;;;11.60;;
56161;SDS011;42045;52.986;6.014;2023-04-06T07:34:20;13.90;;;12.13;;
56161;SDS011;42045;52.986;6.014;2023-04-06T07:36:46;20.52;;;13.02;;
56161;SDS011;42045;52.986;6.014;2023-04-06T07:39:12;13.65;;;11.98;;
56161;SDS011;42045;52.986;6.014;2023-04-06T07:41:38;17.67;;;12.10;;
56161;SDS011;42045;52.986;6.014;2023-04-06T07:44:04;13.77;;;12.07;;
56161;SDS011;42045;52.986;6.014;2023-04-06T07:46:30;13.57;;;11.50;;
56161;SDS011;42045;52.986;6.014;2023-04-06T07:48:56;14.40;;;12.23;;
56161;SDS011;42045;52.986;6.014;2023-04-06T07:51:23;14.93;;;11.68;;
56161;SDS011;42045;52.986;6.014;2023-04-06T07:53:50;16.83;;;13.40;;
56161;SDS011;42045;52.986;6.014;2023-04-06T07:56:16;14.35;;;12.15;;
56161;SDS011;42045;52.986;6.014;2023-04-06T07:58:41;14.52;;;12.05;;
56161;SDS011;42045;52.986;6.014;2023-04-06T08:01:07;13.02;;;11.63;;
56161;SDS011;42045;52.986;6.014;2023-04-06T08:03:33;18.60;;;12.90;;
56161;SDS011;42045;52.986;6.014;2023-04-06T08:06:00;15.77;;;12.55;;
56161;SDS011;42045;52.986;6.014;2023-04-06T08:08:26;13.77;;;11.88;;
56161;SDS011;42045;52.986;6.014;2023-04-06T08:10:52;13.93;;;12.32;;
56161;SDS011;42045;52.986;6.014;2023-04-06T08:13:17;13.82;;;12.43;;
56161;SDS011;42045;52.986;6.014;2023-04-06T08:15:43;14.23;;;12.10;;
56161;SDS011;42045;52.986;6.014;2023-04-06T08:18:09;15.32;;;12.30;;
56161;SDS011;42045;52.986;6.014;2023-04-06T08:20:35;14.65;;;12.73;;
56161;SDS011;42045;52.986;6.014;2023-04-06T08:23:01;13.55;;;12.18;;
56161;SDS011;42045;52.986;6.014;2023-04-06T08:25:27;15.50;;;13.82;;
56161;SDS011;42045;52.986;6.014;2023-04-06T08:27:52;14.73;;;13.23;;
56161;SDS011;42045;52.986;6.014;2023-04-06T08:30:18;15.60;;;13.93;;
56161;SDS011;42045;52.986;6.014;2023-04-06T08:32:47;18.70;;;15.20;;
56161;SDS011;42045;52.986;6.014;2023-04-06T08:35:13;20.05;;;15.40;;
56161;SDS011;42045;52.986;6.014;2023-04-06T08:37:38;17.25;;;15.05;;
56161;SDS011;42045;52.986;6.014;2023-04-06T08:40:04;17.08;;;15.27;;
56161;SDS011;42045;52.986;6.014;2023-04-06T08:42:34;18.90;;;15.98;;
56161;SDS011;42045;52.986;6.014;2023-04-06T08:45:06;19.23;;;15.75;;
56161;SDS011;42045;52.986;6.014;2023-04-06T08:47:34;22.95;;;16.92;;
56161;SDS011;42045;52.986;6.014;2023-04-06T08:50:02;19.77;;;15.80;;
56161;SDS011;42045;52.986;6.014;2023-04-06T08:52:29;21.25;;;16.33;;
56161;SDS011;42045;52.986;6.014;2023-04-06T08:54:57;20.65;;;16.95;;
56161;SDS011;42045;52.986;6.014;2023-04-06T08:57:23;20.88;;;16.13;;
56161;SDS011;42045;52.986;6.014;2023-04-06T08:59:50;18.75;;;16.75;;
56161;SDS011;42045;52.986;6.014;2023-04-06T09:02:18;18.75;;;15.73;;
56161;SDS011;42045;52.986;6.014;2023-04-06T09:04:48;19.30;;;15.55;;
56161;SDS011;42045;52.986;6.014;2023-04-06T09:07:17;20.13;;;17.45;;
56161;SDS011;42045;52.986;6.014;2023-04-06T09:09:43;20.73;;;16.33;;
56161;SDS011;42045;52.986;6.014;2023-04-06T09:12:28;18.40;;;16.50;;
56161;SDS011;42045;52.986;6.014;2023-04-06T09:14:56;20.48;;;18.27;;
56161;SDS011;42045;52.986;6.014;2023-04-06T09:17:23;21.65;;;19.13;;
56161;SDS011;42045;52.986;6.014;2023-04-06T09:19:50;18.48;;;16.38;;
56161;SDS011;42045;52.986;6.014;2023-04-06T09:22:16;19.10;;;16.83;;
56161;SDS011;42045;52.986;6.014;2023-04-06T09:24:46;19.17;;;17.00;;
56161;SDS011;42045;52.986;6.014;2023-04-06T09:27:16;21.30;;;17.73;;
56161;SDS011;42045;52.986;6.014;2023-04-06T09:29:42;18.75;;;16.67;;
56161;SDS011;42045;52.986;6.014;2023-04-06T09:32:10;20.85;;;17.50;;
56161;SDS011;42045;52.986;6.014;2023-04-06T09:34:37;21.33;;;18.45;;
56161;SDS011;42045;52.986;6.014;2023-04-06T09:37:13;19.05;;;16.80;;
56161;SDS011;42045;52.986;6.014;2023-04-06T09:39:39;20.45;;;17.70;;
56161;SDS011;42045;52.986;6.014;2023-04-06T09:42:05;23.65;;;17.55;;
56161;SDS011;42045;52.986;6.014;2023-04-06T09:44:30;20.63;;;17.98;;
56161;SDS011;42045;52.986;6.014;2023-04-06T09:46:56;21.15;;;17.83;;
56161;SDS011;42045;52.986;6.014;2023-04-06T09:49:22;21.02;;;18.23;;
56161;SDS011;42045;52.986;6.014;2023-04-06T09:51:53;19.73;;;17.50;;
56161;SDS011;42045;52.986;6.014;2023-04-06T09:54:22;23.42;;;18.40;;
56161;SDS011;42045;52.986;6.014;2023-04-06T09:56:55;21.20;;;18.85;;
56161;SDS011;42045;52.986;6.014;2023-04-06T10:05:19;26.17;;;18.27;;
56161;SDS011;42045;52.986;6.014;2023-04-06T10:08:09;24.52;;;20.88;;
56161;SDS011;42045;52.986;6.014;2023-04-06T10:10:36;22.42;;;19.10;;
56161;SDS011;42045;52.986;6.014;2023-04-06T10:13:02;23.13;;;19.75;;
56161;SDS011;42045;52.986;6.014;2023-04-06T10:15:29;22.30;;;19.83;;
56161;SDS011;42045;52.986;6.014;2023-04-06T10:17:56;29.17;;;20.88;;
56161;SDS011;42045;52.986;6.014;2023-04-06T10:23:13;27.55;;;20.77;;
56161;SDS011;42045;52.986;6.014;2023-04-06T10:26:13;24.15;;;19.58;;
56161;SDS011;42045;52.986;6.014;2023-04-06T10:28:41;24.05;;;20.17;;
56161;SDS011;42045;52.986;6.014;2023-04-06T10:31:08;27.25;;;19.63;;
56161;SDS011;42045;52.986;6.014;2023-04-06T10:33:34;25.63;;;21.45;;
56161;SDS011;42045;52.986;6.014;2023-04-06T10:36:21;22.65;;;19.30;;
56161;SDS011;42045;52.986;6.014;2023-04-06T10:38:53;25.83;;;21.58;;
56161;SDS011;42045;52.986;6.014;2023-04-06T10:41:19;28.77;;;20.98;;
56161;SDS011;42045;52.986;6.014;2023-04-06T10:43:45;23.30;;;20.00;;
56161;SDS011;42045;52.986;6.014;2023-04-06T10:46:24;27.70;;;20.88;;
56161;SDS011;42045;52.986;6.014;2023-04-06T10:48:51;27.35;;;20.38;;
56161;SDS011;42045;52.986;6.014;2023-04-06T10:51:17;28.00;;;21.65;;
56161;SDS011;42045;52.986;6.014;2023-04-06T10:53:44;29.73;;;21.77;;
56161;SDS011;42045;52.986;6.014;2023-04-06T10:56:15;26.77;;;21.17;;
56161;SDS011;42045;52.986;6.014;2023-04-06T10:58:45;29.45;;;21.02;;
56161;SDS011;42045;52.986;6.014;2023-04-06T11:03:42;25.85;;;20.23;;
56161;SDS011;42045;52.986;6.014;2023-04-06T11:06:09;28.27;;;21.55;;
56161;SDS011;42045;52.986;6.014;2023-04-06T11:08:35;25.13;;;20.23;;
56161;SDS011;42045;52.986;6.014;2023-04-06T11:11:09;31.00;;;22.02;;
56161;SDS011;42045;52.986;6.014;2023-04-06T11:16:22;25.50;;;21.08;;
56161;SDS011;42045;52.986;6.014;2023-04-06T11:24:05;26.90;;;21.05;;
56161;SDS011;42045;52.986;6.014;2023-04-06T11:26:31;30.95;;;23.13;;
56161;SDS011;42045;52.986;6.014;2023-04-06T11:29:01;30.45;;;22.65;;
56161;SDS011;42045;52.986;6.014;2023-04-06T11:31:27;26.58;;;21.40;;
56161;SDS011;42045;52.986;6.014;2023-04-06T11:33:56;29.17;;;22.98;;
56161;SDS011;42045;52.986;6.014;2023-04-06T11:36:22;26.60;;;21.48;;
56161;SDS011;42045;52.986;6.014;2023-04-06T11:38:48;25.48;;;21.73;;
56161;SDS011;42045;52.986;6.014;2023-04-06T11:41:15;28.58;;;21.33;;
56161;SDS011;42045;52.986;6.014;2023-04-06T11:43:46;30.02;;;22.52;;
56161;SDS011;42045;52.986;6.014;2023-04-06T11:46:16;26.95;;;22.08;;
56161;SDS011;42045;52.986;6.014;2023-04-06T11:48:44;27.65;;;23.20;;
56161;SDS011;42045;52.986;6.014;2023-04-06T11:51:11;27.63;;;22.30;;
56161;SDS011;42045;52.986;6.014;2023-04-06T11:53:43;24.63;;;20.38;;
56161;SDS011;42045;52.986;6.014;2023-04-06T11:56:11;25.75;;;21.45;;
56161;SDS011;42045;52.986;6.014;2023-04-06T11:58:36;26.05;;;21.00;;
56161;SDS011;42045;52.986;6.014;2023-04-06T12:01:03;27.75;;;21.40;;
56161;SDS011;42045;52.986;6.014;2023-04-06T12:03:29;29.90;;;22.45;;
56161;SDS011;42045;52.986;6.014;2023-04-06T12:05:54;24.48;;;21.05;;
56161;SDS011;42045;52.986;6.014;2023-04-06T12:08:20;24.55;;;21.48;;
56161;SDS011;42045;52.986;6.014;2023-04-06T12:10:50;26.15;;;21.38;;
56161;SDS011;42045;52.986;6.014;2023-04-06T12:13:16;26.92;;;22.02;;
56161;SDS011;42045;52.986;6.014;2023-04-06T12:15:41;28.52;;;21.02;;
56161;SDS011;42045;52.986;6.014;2023-04-06T12:18:07;27.10;;;21.63;;
56161;SDS011;42045;52.986;6.014;2023-04-06T12:20:33;29.65;;;21.08;;
56161;SDS011;42045;52.986;6.014;2023-04-06T12:22:59;25.73;;;21.77;;
56161;SDS011;42045;52.986;6.014;2023-04-06T12:25:24;24.17;;;20.27;;
56161;SDS011;42045;52.986;6.014;2023-04-06T12:27:50;24.23;;;19.05;;
56161;SDS011;42045;52.986;6.014;2023-04-06T12:30:16;23.90;;;17.80;;
56161;SDS011;42045;52.986;6.014;2023-04-06T12:32:42;21.75;;;18.08;;
56161;SDS011;42045;52.986;6.014;2023-04-06T12:35:08;17.55;;;13.88;;
56161;SDS011;42045;52.986;6.014;2023-04-06T12:37:34;14.57;;;11.80;;
56161;SDS011;42045;52.986;6.014;2023-04-06T12:40:00;15.98;;;13.27;;
56161;SDS011;42045;52.986;6.014;2023-04-06T12:42:26;16.50;;;14.75;;
56161;SDS011;42045;52.986;6.014;2023-04-06T12:44:51;21.13;;;15.48;;
56161;SDS011;42045;52.986;6.014;2023-04-06T12:47:17;19.33;;;15.80;;
56161;SDS011;42045;52.986;6.014;2023-04-06T12:49:43;15.68;;;13.93;;
56161;SDS011;42045;52.986;6.014;2023-04-06T12:52:09;17.05;;;14.48;;
56161;SDS011;42045;52.986;6.014;2023-04-06T12:54:35;17.35;;;12.93;;
56161;SDS011;42045;52.986;6.014;2023-04-06T12:57:01;17.08;;;14.40;;
56161;SDS011;42045;52.986;6.014;2023-04-06T12:59:27;16.98;;;14.73;;
56161;SDS011;42045;52.986;6.014;2023-04-06T13:01:59;18.13;;;14.63;;
56161;SDS011;42045;52.986;6.014;2023-04-06T13:04:25;19.73;;;15.15;;
56161;SDS011;42045;52.986;6.014;2023-04-06T13:06:51;17.30;;;15.23;;
56161;SDS011;42045;52.986;6.014;2023-04-06T13:09:17;18.45;;;14.88;;
56161;SDS011;42045;52.986;6.014;2023-04-06T13:11:42;18.52;;;16.08;;
56161;SDS011;42045;52.986;6.014;2023-04-06T13:14:08;19.85;;;16.50;;
56161;SDS011;42045;52.986;6.014;2023-04-06T13:16:34;22.20;;;17.92;;
56161;SDS011;42045;52.986;6.014;2023-04-06T13:19:00;18.45;;;16.42;;
56161;SDS011;42045;52.986;6.014;2023-04-06T13:21:26;22.33;;;17.63;;
56161;SDS011;42045;52.986;6.014;2023-04-06T13:23:52;20.40;;;18.17;;
56161;SDS011;42045;52.986;6.014;2023-04-06T13:26:17;23.08;;;18.60;;
56161;SDS011;42045;52.986;6.014;2023-04-06T13:28:43;21.42;;;18.88;;
56161;SDS011;42045;52.986;6.014;2023-04-06T13:31:08;23.25;;;18.92;;
56161;SDS011;42045;52.986;6.014;2023-04-06T13:33:35;23.33;;;18.92;;
56161;SDS011;42045;52.986;6.014;2023-04-06T13:36:01;23.98;;;18.98;;
56161;SDS011;42045;52.986;6.014;2023-04-06T13:38:27;24.73;;;19.45;;
56161;SDS011;42045;52.986;6.014;2023-04-06T13:40:52;23.73;;;19.08;;
56161;SDS011;42045;52.986;6.014;2023-04-06T13:43:18;22.08;;;19.33;;
56161;SDS011;42045;52.986;6.014;2023-04-06T13:45:48;23.45;;;18.35;;
56161;SDS011;42045;52.986;6.014;2023-04-06T13:48:15;26.70;;;19.50;;
56161;SDS011;42045;52.986;6.014;2023-04-06T13:50:40;26.58;;;21.77;;
56161;SDS011;42045;52.986;6.014;2023-04-06T13:53:06;30.60;;;22.35;;
56161;SDS011;42045;52.986;6.014;2023-04-06T13:55:32;27.45;;;21.20;;
56161;SDS011;42045;52.986;6.014;2023-04-06T13:57:57;28.23;;;22.88;;
56161;SDS011;42045;52.986;6.014;2023-04-06T14:00:23;22.45;;;19.30;;
56161;SDS011;42045;52.986;6.014;2023-04-06T14:02:53;22.80;;;17.83;;
56161;SDS011;42045;52.986;6.014;2023-04-06T14:05:19;24.23;;;19.15;;
56161;SDS011;42045;52.986;6.014;2023-04-06T14:07:45;22.80;;;18.58;;
56161;SDS011;42045;52.986;6.014;2023-04-06T14:10:11;28.13;;;21.27;;
56161;SDS011;42045;52.986;6.014;2023-04-06T14:12:42;24.67;;;19.50;;
56161;SDS011;42045;52.986;6.014;2023-04-06T14:15:10;29.17;;;23.52;;
56161;SDS011;42045;52.986;6.014;2023-04-06T14:17:36;35.58;;;28.05;;
56161;SDS011;42045;52.986;6.014;2023-04-06T14:20:03;32.67;;;25.73;;
56161;SDS011;42045;52.986;6.014;2023-04-06T14:22:34;23.85;;;20.17;;
56161;SDS011;42045;52.986;6.014;2023-04-06T14:25:00;26.25;;;21.05;;
56161;SDS011;42045;52.986;6.014;2023-04-06T14:27:26;24.10;;;20.38;;
56161;SDS011;42045;52.986;6.014;2023-04-06T14:29:51;25.98;;;21.52;;
56161;SDS011;42045;52.986;6.014;2023-04-06T14:32:19;26.63;;;23.52;;
56161;SDS011;42045;52.986;6.014;2023-04-06T14:34:45;28.30;;;24.67;;
56161;SDS011;42045;52.986;6.014;2023-04-06T14:37:11;31.15;;;24.42;;
56161;SDS011;42045;52.986;6.014;2023-04-06T14:39:36;29.15;;;24.90;;
56161;SDS011;42045;52.986;6.014;2023-04-06T14:42:02;29.98;;;24.73;;
56161;SDS011;42045;52.986;6.014;2023-04-06T14:44:28;32.38;;;25.42;;